sensor_id;sensor_type;location;lat;lon;timestamp;P1;durP1;ratioP1;P2;durP2;ratioP2
12171;SDS011;6149;52.418;13.668;2024-01-07T00:01:59;6.47;;;2.93;;
12171;SDS011;6149;52.418;13.668;2024-01-07T00:04:25;4.77;;;2.50;;
12171;SDS011;6149;52.418;13.668;2024-01-07T00:06:52;6.57;;;3.00;;
12171;SDS011;6149;52.418;13.668;2024-01-07T00:09:18;5.73;;;2.60;;
12171;SDS011;6149;52.418;13.668;2024-01-07T00:11:45;3.90;;;2.40;;
12171;SDS011;6149;52.418;13.668;2024-01-07T00:14:11;3.63;;;2.33;;
12171;SDS011;6149;52.418;13.668;2024-01-07T00:16:39;5.43;;;2.70;;
12171;SDS011;6149;52.418;13.668;2024-01-07T00:19:07;4.43;;;2.70;;
12171;SDS011;6149;52.418;13.668;2024-01-07T00:21:34;5.53;;;2.87;;
12171;SDS011;6149;52.418;13.668;2024-01-07T00:24:00;6.63;;;2.93;;
12171;SDS011;6149;52.418;13.668;2024-01-07T00:26:27;4.53;;;2.73;;
12171;SDS011;6149;52.418;13.668;2024-01-07T00:28:53;3.67;;;2.63;;
12171;SDS011;6149;52.418;13.668;2024-01-07T00:31:20;4.37;;;2.67;;
12171;SDS011;6149;52.418;13.668;2024-01-07T00:33:46;5.60;;;3.27;;
12171;SDS011;6149;52.418;13.668;2024-01-07T00:36:14;4.50;;;2.67;;
12171;SDS011;6149;52.418;13.668;2024-01-07T00:38:41;5.83;;;3.00;;
12171;SDS011;6149;52.418;13.668;2024-01-07T00:41:07;4.13;;;2.83;;
12171;SDS011;6149;52.418;13.668;2024-01-07T00:43:34;5.20;;;3.00;;
12171;SDS011;6149;52.418;13.668;2024-01-07T00:46:00;4.63;;;2.73;;
12171;SDS011;6149;52.418;13.668;2024-01-07T00:48:27;3.93;;;2.80;;
12171;SDS011;6149;52.418;13.668;2024-01-07T00:50:54;4.10;;;2.50;;
12171;SDS011;6149;52.418;13.668;2024-01-07T00:53:22;4.70;;;2.90;;
12171;SDS011;6149;52.418;13.668;2024-01-07T00:55:49;5.47;;;2.83;;
12171;SDS011;6149;52.418;13.668;2024-01-07T00:58:15;5.93;;;3.00;;
12171;SDS011;6149;52.418;13.668;2024-01-07T01:00:42;6.17;;;3.30;;
12171;SDS011;6149;52.418;13.668;2024-01-07T01:03:08;4.53;;;2.60;;
12171;SDS011;6149;52.418;13.668;2024-01-07T01:05:35;4.80;;;2.63;;
12171;SDS011;6149;52.418;13.668;2024-01-07T01:08:02;5.40;;;2.63;;
12171;SDS011;6149;52.418;13.668;2024-01-07T01:10:30;5.03;;;2.47;;
12171;SDS011;6149;52.418;13.668;2024-01-07T01:12:56;6.37;;;2.63;;
12171;SDS011;6149;52.418;13.668;2024-01-07T01:15:23;5.27;;;2.40;;
12171;SDS011;6149;52.418;13.668;2024-01-07T01:17:49;5.27;;;2.37;;
12171;SDS011;6149;52.418;13.668;2024-01-07T01:20:16;3.67;;;2.37;;
12171;SDS011;6149;52.418;13.668;2024-01-07T01:22:42;5.70;;;2.27;;
12171;SDS011;6149;52.418;13.668;2024-01-07T01:25:09;3.30;;;2.13;;
12171;SDS011;6149;52.418;13.668;2024-01-07T01:27:37;4.47;;;2.00;;
12171;SDS011;6149;52.418;13.668;2024-01-07T01:30:04;2.87;;;2.03;;
12171;SDS011;6149;52.418;13.668;2024-01-07T01:32:32;3.30;;;2.03;;
12171;SDS011;6149;52.418;13.668;2024-01-07T01:34:59;4.30;;;2.17;;
12171;SDS011;6149;52.418;13.668;2024-01-07T01:37:27;4.50;;;1.80;;
12171;SDS011;6149;52.418;13.668;2024-01-07T01:39:54;3.40;;;1.90;;
12171;SDS011;6149;52.418;13.668;2024-01-07T01:42:20;3.80;;;1.63;;
12171;SDS011;6149;52.418;13.668;2024-01-07T01:44:48;3.57;;;1.90;;
12171;SDS011;6149;52.418;13.668;2024-01-07T01:47:14;4.77;;;2.40;;
12171;SDS011;6149;52.418;13.668;2024-01-07T01:49:42;4.07;;;2.00;;
12171;SDS011;6149;52.418;13.668;2024-01-07T01:52:08;4.63;;;2.40;;
12171;SDS011;6149;52.418;13.668;2024-01-07T01:54:36;3.33;;;2.40;;
12171;SDS011;6149;52.418;13.668;2024-01-07T01:57:03;5.07;;;2.37;;
12171;SDS011;6149;52.418;13.668;2024-01-07T01:59:30;3.77;;;2.30;;
12171;SDS011;6149;52.418;13.668;2024-01-07T02:02:01;6.13;;;2.30;;
12171;SDS011;6149;52.418;13.668;2024-01-07T02:04:27;3.90;;;2.10;;
12171;SDS011;6149;52.418;13.668;2024-01-07T02:06:54;4.20;;;2.33;;
12171;SDS011;6149;52.418;13.668;2024-01-07T02:09:21;3.80;;;2.30;;
12171;SDS011;6149;52.418;13.668;2024-01-07T02:11:59;4.50;;;2.47;;
12171;SDS011;6149;52.418;13.668;2024-01-07T02:14:27;3.73;;;2.13;;
12171;SDS011;6149;52.418;13.668;2024-01-07T02:16:53;3.53;;;2.63;;
12171;SDS011;6149;52.418;13.668;2024-01-07T02:19:21;3.83;;;2.23;;
12171;SDS011;6149;52.418;13.668;2024-01-07T02:21:49;5.10;;;3.00;;
12171;SDS011;6149;52.418;13.668;2024-01-07T02:24:18;4.67;;;2.63;;
12171;SDS011;6149;52.418;13.668;2024-01-07T02:26:44;4.17;;;2.60;;
12171;SDS011;6149;52.418;13.668;2024-01-07T02:29:11;4.50;;;2.60;;
12171;SDS011;6149;52.418;13.668;2024-01-07T02:31:38;4.83;;;2.60;;
12171;SDS011;6149;52.418;13.668;2024-01-07T02:34:04;5.63;;;2.30;;
12171;SDS011;6149;52.418;13.668;2024-01-07T02:36:31;4.40;;;2.53;;
12171;SDS011;6149;52.418;13.668;2024-01-07T02:38:57;5.87;;;2.70;;
12171;SDS011;6149;52.418;13.668;2024-01-07T02:41:25;4.83;;;2.87;;
12171;SDS011;6149;52.418;13.668;2024-01-07T02:43:52;4.93;;;2.80;;
12171;SDS011;6149;52.418;13.668;2024-01-07T02:46:19;4.03;;;2.47;;
12171;SDS011;6149;52.418;13.668;2024-01-07T02:48:45;4.20;;;3.00;;
12171;SDS011;6149;52.418;13.668;2024-01-07T02:51:12;3.57;;;2.40;;
12171;SDS011;6149;52.418;13.668;2024-01-07T02:53:39;5.53;;;3.00;;
12171;SDS011;6149;52.418;13.668;2024-01-07T02:56:06;3.63;;;2.70;;
12171;SDS011;6149;52.418;13.668;2024-01-07T02:58:35;5.43;;;3.07;;
12171;SDS011;6149;52.418;13.668;2024-01-07T03:01:01;4.47;;;3.07;;
12171;SDS011;6149;52.418;13.668;2024-01-07T03:03:28;3.87;;;2.63;;
12171;SDS011;6149;52.418;13.668;2024-01-07T03:05:55;4.83;;;3.10;;
12171;SDS011;6149;52.418;13.668;2024-01-07T03:08:21;4.57;;;3.23;;
12171;SDS011;6149;52.418;13.668;2024-01-07T03:10:48;5.17;;;2.80;;
12171;SDS011;6149;52.418;13.668;2024-01-07T03:13:14;5.07;;;3.00;;
12171;SDS011;6149;52.418;13.668;2024-01-07T03:15:42;4.63;;;3.23;;
12171;SDS011;6149;52.418;13.668;2024-01-07T03:18:09;4.37;;;3.03;;
12171;SDS011;6149;52.418;13.668;2024-01-07T03:20:35;4.93;;;3.37;;
12171;SDS011;6149;52.418;13.668;2024-01-07T03:23:02;6.17;;;3.30;;
12171;SDS011;6149;52.418;13.668;2024-01-07T03:25:29;4.40;;;2.87;;
12171;SDS011;6149;52.418;13.668;2024-01-07T03:27:55;3.83;;;2.73;;
12171;SDS011;6149;52.418;13.668;2024-01-07T03:30:22;6.47;;;3.40;;
12171;SDS011;6149;52.418;13.668;2024-01-07T03:32:50;4.77;;;3.03;;
12171;SDS011;6149;52.418;13.668;2024-01-07T03:35:16;4.23;;;2.77;;
12171;SDS011;6149;52.418;13.668;2024-01-07T03:37:43;4.80;;;3.10;;
12171;SDS011;6149;52.418;13.668;2024-01-07T03:40:10;2.77;;;2.13;;
12171;SDS011;6149;52.418;13.668;2024-01-07T03:42:37;3.83;;;2.53;;
12171;SDS011;6149;52.418;13.668;2024-01-07T03:45:04;3.77;;;2.60;;
12171;SDS011;6149;52.418;13.668;2024-01-07T03:47:31;3.40;;;2.47;;
12171;SDS011;6149;52.418;13.668;2024-01-07T03:49:59;4.40;;;3.00;;
12171;SDS011;6149;52.418;13.668;2024-01-07T03:52:25;6.20;;;2.60;;
12171;SDS011;6149;52.418;13.668;2024-01-07T03:54:53;3.73;;;2.57;;
12171;SDS011;6149;52.418;13.668;2024-01-07T03:57:20;3.27;;;2.50;;
12171;SDS011;6149;52.418;13.668;2024-01-07T03:59:46;4.00;;;2.40;;
12171;SDS011;6149;52.418;13.668;2024-01-07T04:02:13;3.40;;;2.70;;
12171;SDS011;6149;52.418;13.668;2024-01-07T04:04:41;3.47;;;2.50;;
12171;SDS011;6149;52.418;13.668;2024-01-07T04:07:10;4.27;;;2.30;;
12171;SDS011;6149;52.418;13.668;2024-01-07T04:09:36;4.37;;;2.47;;
12171;SDS011;6149;52.418;13.668;2024-01-07T04:12:03;2.70;;;2.27;;
12171;SDS011;6149;52.418;13.668;2024-01-07T04:14:31;3.90;;;2.70;;
12171;SDS011;6149;52.418;13.668;2024-01-07T04:16:58;4.30;;;2.63;;
12171;SDS011;6149;52.418;13.668;2024-01-07T04:19:25;3.43;;;2.30;;
12171;SDS011;6149;52.418;13.668;2024-01-07T04:21:52;4.40;;;2.40;;
12171;SDS011;6149;52.418;13.668;2024-01-07T04:24:19;3.83;;;2.10;;
12171;SDS011;6149;52.418;13.668;2024-01-07T04:26:46;4.17;;;2.27;;
12171;SDS011;6149;52.418;13.668;2024-01-07T04:29:12;4.73;;;2.40;;
12171;SDS011;6149;52.418;13.668;2024-01-07T04:31:39;3.67;;;1.87;;
12171;SDS011;6149;52.418;13.668;2024-01-07T04:34:05;2.67;;;1.90;;
12171;SDS011;6149;52.418;13.668;2024-01-07T04:36:32;2.07;;;1.60;;
12171;SDS011;6149;52.418;13.668;2024-01-07T04:38:58;3.83;;;2.20;;
12171;SDS011;6149;52.418;13.668;2024-01-07T04:41:26;2.87;;;1.80;;
12171;SDS011;6149;52.418;13.668;2024-01-07T04:43:53;2.67;;;1.90;;
12171;SDS011;6149;52.418;13.668;2024-01-07T04:46:19;2.10;;;1.53;;
12171;SDS011;6149;52.418;13.668;2024-01-07T04:48:46;3.17;;;1.90;;
12171;SDS011;6149;52.418;13.668;2024-01-07T04:51:13;2.50;;;1.80;;
12171;SDS011;6149;52.418;13.668;2024-01-07T04:53:40;2.20;;;1.30;;
12171;SDS011;6149;52.418;13.668;2024-01-07T04:56:06;3.33;;;1.80;;
12171;SDS011;6149;52.418;13.668;2024-01-07T04:58:34;1.77;;;1.50;;
12171;SDS011;6149;52.418;13.668;2024-01-07T05:01:01;2.37;;;1.57;;
12171;SDS011;6149;52.418;13.668;2024-01-07T05:03:27;2.17;;;1.33;;
12171;SDS011;6149;52.418;13.668;2024-01-07T05:05:54;1.87;;;1.40;;
12171;SDS011;6149;52.418;13.668;2024-01-07T05:08:20;2.53;;;1.80;;
12171;SDS011;6149;52.418;13.668;2024-01-07T05:10:47;2.17;;;1.50;;
12171;SDS011;6149;52.418;13.668;2024-01-07T05:13:13;3.03;;;1.30;;
12171;SDS011;6149;52.418;13.668;2024-01-07T05:15:41;4.33;;;1.60;;
12171;SDS011;6149;52.418;13.668;2024-01-07T05:18:08;2.10;;;1.67;;
12171;SDS011;6149;52.418;13.668;2024-01-07T05:20:35;3.07;;;1.87;;
12171;SDS011;6149;52.418;13.668;2024-01-07T05:23:01;1.90;;;1.50;;
12171;SDS011;6149;52.418;13.668;2024-01-07T05:25:28;2.83;;;1.63;;
12171;SDS011;6149;52.418;13.668;2024-01-07T05:27:54;2.97;;;1.87;;
12171;SDS011;6149;52.418;13.668;2024-01-07T05:30:21;2.37;;;1.37;;
12171;SDS011;6149;52.418;13.668;2024-01-07T05:32:49;2.47;;;1.87;;
12171;SDS011;6149;52.418;13.668;2024-01-07T05:35:16;2.60;;;1.77;;
12171;SDS011;6149;52.418;13.668;2024-01-07T05:37:42;3.10;;;1.70;;
12171;SDS011;6149;52.418;13.668;2024-01-07T05:40:09;2.23;;;1.60;;
12171;SDS011;6149;52.418;13.668;2024-01-07T05:42:37;4.13;;;1.70;;
12171;SDS011;6149;52.418;13.668;2024-01-07T05:45:03;3.50;;;1.87;;
12171;SDS011;6149;52.418;13.668;2024-01-07T05:47:31;2.07;;;1.60;;
12171;SDS011;6149;52.418;13.668;2024-01-07T05:49:58;2.77;;;1.70;;
12171;SDS011;6149;52.418;13.668;2024-01-07T05:52:25;3.53;;;1.93;;
12171;SDS011;6149;52.418;13.668;2024-01-07T05:54:52;2.57;;;1.90;;
12171;SDS011;6149;52.418;13.668;2024-01-07T05:57:19;2.57;;;1.77;;
12171;SDS011;6149;52.418;13.668;2024-01-07T05:59:45;2.37;;;1.83;;
12171;SDS011;6149;52.418;13.668;2024-01-07T06:02:12;3.23;;;1.97;;
12171;SDS011;6149;52.418;13.668;2024-01-07T06:04:39;3.73;;;1.67;;
12171;SDS011;6149;52.418;13.668;2024-01-07T06:07:06;2.97;;;2.00;;
12171;SDS011;6149;52.418;13.668;2024-01-07T06:09:33;2.90;;;1.80;;
12171;SDS011;6149;52.418;13.668;2024-01-07T06:12:00;2.63;;;1.80;;
12171;SDS011;6149;52.418;13.668;2024-01-07T06:14:26;3.93;;;1.73;;
12171;SDS011;6149;52.418;13.668;2024-01-07T06:16:53;1.73;;;1.33;;
12171;SDS011;6149;52.418;13.668;2024-01-07T06:19:20;1.90;;;1.47;;
12171;SDS011;6149;52.418;13.668;2024-01-07T06:21:47;2.63;;;1.80;;
12171;SDS011;6149;52.418;13.668;2024-01-07T06:24:14;2.40;;;1.70;;
12171;SDS011;6149;52.418;13.668;2024-01-07T06:26:41;2.57;;;1.77;;
12171;SDS011;6149;52.418;13.668;2024-01-07T06:29:08;2.73;;;1.90;;
12171;SDS011;6149;52.418;13.668;2024-01-07T06:31:35;3.10;;;2.03;;
12171;SDS011;6149;52.418;13.668;2024-01-07T06:34:02;3.97;;;1.83;;
12171;SDS011;6149;52.418;13.668;2024-01-07T06:36:28;3.10;;;2.00;;
12171;SDS011;6149;52.418;13.668;2024-01-07T06:38:55;2.50;;;1.70;;
12171;SDS011;6149;52.418;13.668;2024-01-07T06:41:23;2.80;;;1.90;;
12171;SDS011;6149;52.418;13.668;2024-01-07T06:43:49;2.23;;;1.70;;
12171;SDS011;6149;52.418;13.668;2024-01-07T06:46:19;1.93;;;1.60;;
12171;SDS011;6149;52.418;13.668;2024-01-07T06:48:45;4.40;;;2.10;;
12171;SDS011;6149;52.418;13.668;2024-01-07T06:51:12;2.00;;;1.60;;
12171;SDS011;6149;52.418;13.668;2024-01-07T06:53:40;3.20;;;1.90;;
12171;SDS011;6149;52.418;13.668;2024-01-07T06:56:06;2.13;;;1.60;;
12171;SDS011;6149;52.418;13.668;2024-01-07T06:58:34;4.33;;;2.03;;
12171;SDS011;6149;52.418;13.668;2024-01-07T07:01:01;4.10;;;1.80;;
12171;SDS011;6149;52.418;13.668;2024-01-07T07:03:28;2.47;;;1.73;;
12171;SDS011;6149;52.418;13.668;2024-01-07T07:05:54;3.63;;;1.77;;
12171;SDS011;6149;52.418;13.668;2024-01-07T07:08:21;4.30;;;1.87;;
12171;SDS011;6149;52.418;13.668;2024-01-07T07:10:48;4.40;;;1.80;;
12171;SDS011;6149;52.418;13.668;2024-01-07T07:13:15;3.07;;;1.87;;
12171;SDS011;6149;52.418;13.668;2024-01-07T07:15:43;4.57;;;2.40;;
12171;SDS011;6149;52.418;13.668;2024-01-07T07:18:09;4.67;;;2.30;;
12171;SDS011;6149;52.418;13.668;2024-01-07T07:20:36;4.77;;;2.60;;
12171;SDS011;6149;52.418;13.668;2024-01-07T07:23:03;3.33;;;2.10;;
12171;SDS011;6149;52.418;13.668;2024-01-07T07:25:30;3.73;;;2.20;;
12171;SDS011;6149;52.418;13.668;2024-01-07T07:27:56;4.57;;;2.10;;
12171;SDS011;6149;52.418;13.668;2024-01-07T07:30:23;2.60;;;2.07;;
12171;SDS011;6149;52.418;13.668;2024-01-07T07:32:51;3.43;;;2.03;;
12171;SDS011;6149;52.418;13.668;2024-01-07T07:35:18;3.70;;;1.97;;
12171;SDS011;6149;52.418;13.668;2024-01-07T07:37:44;4.87;;;2.00;;
12171;SDS011;6149;52.418;13.668;2024-01-07T07:40:11;3.73;;;2.00;;
12171;SDS011;6149;52.418;13.668;2024-01-07T07:42:39;3.10;;;2.10;;
12171;SDS011;6149;52.418;13.668;2024-01-07T07:45:06;2.50;;;2.00;;
12171;SDS011;6149;52.418;13.668;2024-01-07T07:47:34;4.53;;;2.10;;
12171;SDS011;6149;52.418;13.668;2024-01-07T07:50:02;4.23;;;2.30;;
12171;SDS011;6149;52.418;13.668;2024-01-07T07:52:29;3.37;;;2.47;;
12171;SDS011;6149;52.418;13.668;2024-01-07T07:54:57;2.37;;;2.10;;
12171;SDS011;6149;52.418;13.668;2024-01-07T07:57:23;2.70;;;2.00;;
12171;SDS011;6149;52.418;13.668;2024-01-07T07:59:50;3.77;;;2.10;;
12171;SDS011;6149;52.418;13.668;2024-01-07T08:02:17;4.17;;;2.20;;
12171;SDS011;6149;52.418;13.668;2024-01-07T08:04:43;5.83;;;2.20;;
12171;SDS011;6149;52.418;13.668;2024-01-07T08:07:11;3.00;;;2.07;;
12171;SDS011;6149;52.418;13.668;2024-01-07T08:09:38;2.60;;;2.07;;
12171;SDS011;6149;52.418;13.668;2024-01-07T08:12:05;3.07;;;2.30;;
12171;SDS011;6149;52.418;13.668;2024-01-07T08:14:32;4.33;;;2.10;;
12171;SDS011;6149;52.418;13.668;2024-01-07T08:16:59;3.07;;;2.03;;
12171;SDS011;6149;52.418;13.668;2024-01-07T08:19:26;2.33;;;1.63;;
12171;SDS011;6149;52.418;13.668;2024-01-07T08:21:52;3.27;;;2.23;;
12171;SDS011;6149;52.418;13.668;2024-01-07T08:24:22;4.83;;;2.30;;
12171;SDS011;6149;52.418;13.668;2024-01-07T08:26:49;2.97;;;2.17;;
12171;SDS011;6149;52.418;13.668;2024-01-07T08:29:16;4.57;;;2.07;;
12171;SDS011;6149;52.418;13.668;2024-01-07T08:31:43;3.87;;;2.10;;
12171;SDS011;6149;52.418;13.668;2024-01-07T08:34:09;2.90;;;2.20;;
12171;SDS011;6149;52.418;13.668;2024-01-07T08:36:36;3.47;;;2.00;;
12171;SDS011;6149;52.418;13.668;2024-01-07T08:39:03;3.87;;;2.03;;
12171;SDS011;6149;52.418;13.668;2024-01-07T08:41:31;4.80;;;2.40;;
12171;SDS011;6149;52.418;13.668;2024-01-07T08:43:57;4.33;;;2.30;;
12171;SDS011;6149;52.418;13.668;2024-01-07T08:46:24;4.23;;;2.37;;
12171;SDS011;6149;52.418;13.668;2024-01-07T08:48:50;3.97;;;2.13;;
12171;SDS011;6149;52.418;13.668;2024-01-07T08:51:17;3.73;;;2.20;;
12171;SDS011;6149;52.418;13.668;2024-01-07T08:53:43;3.80;;;2.23;;
12171;SDS011;6149;52.418;13.668;2024-01-07T08:56:10;3.30;;;2.30;;
12171;SDS011;6149;52.418;13.668;2024-01-07T08:58:41;2.97;;;2.00;;
12171;SDS011;6149;52.418;13.668;2024-01-07T09:01:08;5.63;;;2.40;;
12171;SDS011;6149;52.418;13.668;2024-01-07T09:03:35;4.50;;;2.87;;
12171;SDS011;6149;52.418;13.668;2024-01-07T09:06:01;4.47;;;2.80;;
12171;SDS011;6149;52.418;13.668;2024-01-07T09:08:28;4.70;;;2.57;;
12171;SDS011;6149;52.418;13.668;2024-01-07T09:10:54;6.33;;;2.90;;
12171;SDS011;6149;52.418;13.668;2024-01-07T09:13:21;3.23;;;2.37;;
12171;SDS011;6149;52.418;13.668;2024-01-07T09:15:49;4.17;;;2.80;;
12171;SDS011;6149;52.418;13.668;2024-01-07T09:18:15;4.27;;;3.07;;
12171;SDS011;6149;52.418;13.668;2024-01-07T09:20:42;5.03;;;3.20;;
12171;SDS011;6149;52.418;13.668;2024-01-07T09:23:08;5.73;;;3.77;;
12171;SDS011;6149;52.418;13.668;2024-01-07T09:25:35;4.57;;;2.50;;
12171;SDS011;6149;52.418;13.668;2024-01-07T09:28:01;4.17;;;2.70;;
12171;SDS011;6149;52.418;13.668;2024-01-07T09:30:29;4.03;;;2.47;;
12171;SDS011;6149;52.418;13.668;2024-01-07T09:32:57;5.60;;;2.50;;
12171;SDS011;6149;52.418;13.668;2024-01-07T09:35:23;2.80;;;2.20;;
12171;SDS011;6149;52.418;13.668;2024-01-07T09:37:50;3.93;;;2.50;;
12171;SDS011;6149;52.418;13.668;2024-01-07T09:40:17;3.07;;;2.10;;
12171;SDS011;6149;52.418;13.668;2024-01-07T09:42:44;5.83;;;3.00;;
12171;SDS011;6149;52.418;13.668;2024-01-07T09:45:12;5.43;;;2.50;;
12171;SDS011;6149;52.418;13.668;2024-01-07T09:47:40;5.57;;;2.53;;
12171;SDS011;6149;52.418;13.668;2024-01-07T09:50:10;4.00;;;2.47;;
12171;SDS011;6149;52.418;13.668;2024-01-07T09:52:38;3.73;;;2.37;;
12171;SDS011;6149;52.418;13.668;2024-01-07T09:55:11;4.60;;;2.27;;
12171;SDS011;6149;52.418;13.668;2024-01-07T09:57:46;3.73;;;2.50;;
12171;SDS011;6149;52.418;13.668;2024-01-07T10:00:13;3.23;;;2.20;;
12171;SDS011;6149;52.418;13.668;2024-01-07T10:02:40;3.17;;;2.10;;
12171;SDS011;6149;52.418;13.668;2024-01-07T10:05:07;3.87;;;2.30;;
12171;SDS011;6149;52.418;13.668;2024-01-07T10:07:35;5.03;;;3.00;;
12171;SDS011;6149;52.418;13.668;2024-01-07T10:10:09;4.40;;;2.77;;
12171;SDS011;6149;52.418;13.668;2024-01-07T10:12:39;4.03;;;2.70;;
12171;SDS011;6149;52.418;13.668;2024-01-07T10:15:06;4.00;;;2.63;;
12171;SDS011;6149;52.418;13.668;2024-01-07T10:17:33;5.40;;;2.60;;
12171;SDS011;6149;52.418;13.668;2024-01-07T10:20:00;4.83;;;2.70;;
12171;SDS011;6149;52.418;13.668;2024-01-07T10:22:26;4.90;;;2.83;;
12171;SDS011;6149;52.418;13.668;2024-01-07T10:24:56;3.33;;;2.40;;
12171;SDS011;6149;52.418;13.668;2024-01-07T10:27:23;3.63;;;2.60;;
12171;SDS011;6149;52.418;13.668;2024-01-07T10:29:49;3.03;;;2.30;;
12171;SDS011;6149;52.418;13.668;2024-01-07T10:32:18;3.93;;;2.80;;
12171;SDS011;6149;52.418;13.668;2024-01-07T10:34:46;3.77;;;2.60;;
12171;SDS011;6149;52.418;13.668;2024-01-07T10:37:13;3.90;;;2.70;;
12171;SDS011;6149;52.418;13.668;2024-01-07T10:39:40;4.67;;;2.80;;
12171;SDS011;6149;52.418;13.668;2024-01-07T10:42:08;5.07;;;3.33;;
12171;SDS011;6149;52.418;13.668;2024-01-07T10:44:35;4.40;;;3.10;;
12171;SDS011;6149;52.418;13.668;2024-01-07T10:47:04;4.33;;;3.10;;
12171;SDS011;6149;52.418;13.668;2024-01-07T10:49:33;5.17;;;3.10;;
12171;SDS011;6149;52.418;13.668;2024-01-07T10:52:03;4.70;;;3.40;;
12171;SDS011;6149;52.418;13.668;2024-01-07T10:54:31;8.43;;;3.77;;
12171;SDS011;6149;52.418;13.668;2024-01-07T10:57:02;5.97;;;3.70;;
12171;SDS011;6149;52.418;13.668;2024-01-07T10:59:35;6.93;;;3.90;;
12171;SDS011;6149;52.418;13.668;2024-01-07T11:02:03;5.53;;;3.60;;
12171;SDS011;6149;52.418;13.668;2024-01-07T11:04:31;4.97;;;3.67;;
12171;SDS011;6149;52.418;13.668;2024-01-07T11:07:12;4.70;;;3.53;;
12171;SDS011;6149;52.418;13.668;2024-01-07T11:09:48;5.37;;;3.60;;
12171;SDS011;6149;52.418;13.668;2024-01-07T11:12:27;5.07;;;3.37;;
12171;SDS011;6149;52.418;13.668;2024-01-07T11:14:54;5.57;;;3.73;;
12171;SDS011;6149;52.418;13.668;2024-01-07T11:17:40;5.30;;;3.50;;
12171;SDS011;6149;52.418;13.668;2024-01-07T11:20:17;6.53;;;4.00;;
12171;SDS011;6149;52.418;13.668;2024-01-07T11:22:47;3.87;;;3.13;;
12171;SDS011;6149;52.418;13.668;2024-01-07T11:25:29;5.93;;;3.40;;
12171;SDS011;6149;52.418;13.668;2024-01-07T11:27:59;8.13;;;4.13;;
12171;SDS011;6149;52.418;13.668;2024-01-07T11:30:28;4.67;;;3.53;;
12171;SDS011;6149;52.418;13.668;2024-01-07T11:32:58;6.40;;;4.20;;
12171;SDS011;6149;52.418;13.668;2024-01-07T11:38:22;5.33;;;3.50;;
12171;SDS011;6149;52.418;13.668;2024-01-07T11:40:49;5.60;;;3.80;;
12171;SDS011;6149;52.418;13.668;2024-01-07T11:43:18;6.27;;;3.97;;
12171;SDS011;6149;52.418;13.668;2024-01-07T11:45:45;7.10;;;3.97;;
12171;SDS011;6149;52.418;13.668;2024-01-07T11:48:12;6.60;;;4.40;;
12171;SDS011;6149;52.418;13.668;2024-01-07T11:50:39;6.03;;;3.90;;
12171;SDS011;6149;52.418;13.668;2024-01-07T11:53:05;6.30;;;3.67;;
12171;SDS011;6149;52.418;13.668;2024-01-07T11:55:32;5.93;;;3.90;;
12171;SDS011;6149;52.418;13.668;2024-01-07T11:58:00;6.27;;;4.20;;
12171;SDS011;6149;52.418;13.668;2024-01-07T12:00:30;7.53;;;4.13;;
12171;SDS011;6149;52.418;13.668;2024-01-07T12:02:57;7.10;;;4.70;;
12171;SDS011;6149;52.418;13.668;2024-01-07T12:05:25;5.70;;;4.17;;
12171;SDS011;6149;52.418;13.668;2024-01-07T12:07:51;6.33;;;4.60;;
12171;SDS011;6149;52.418;13.668;2024-01-07T12:10:18;6.67;;;4.53;;
12171;SDS011;6149;52.418;13.668;2024-01-07T12:12:45;5.87;;;4.37;;
12171;SDS011;6149;52.418;13.668;2024-01-07T12:15:13;8.00;;;4.63;;
12171;SDS011;6149;52.418;13.668;2024-01-07T12:17:41;6.03;;;5.20;;
12171;SDS011;6149;52.418;13.668;2024-01-07T12:20:08;9.93;;;5.53;;
12171;SDS011;6149;52.418;13.668;2024-01-07T12:22:37;8.73;;;5.20;;
12171;SDS011;6149;52.418;13.668;2024-01-07T12:25:05;7.60;;;5.47;;
12171;SDS011;6149;52.418;13.668;2024-01-07T12:27:33;10.77;;;5.80;;
12171;SDS011;6149;52.418;13.668;2024-01-07T12:30:00;8.80;;;5.97;;
12171;SDS011;6149;52.418;13.668;2024-01-07T12:32:27;8.73;;;5.20;;
12171;SDS011;6149;52.418;13.668;2024-01-07T12:34:57;10.73;;;5.90;;
12171;SDS011;6149;52.418;13.668;2024-01-07T12:37:25;7.53;;;5.10;;
12171;SDS011;6149;52.418;13.668;2024-01-07T12:39:52;5.97;;;4.77;;
12171;SDS011;6149;52.418;13.668;2024-01-07T12:42:19;7.70;;;5.37;;
12171;SDS011;6149;52.418;13.668;2024-01-07T12:44:46;8.03;;;5.20;;
12171;SDS011;6149;52.418;13.668;2024-01-07T12:47:13;8.50;;;5.23;;
12171;SDS011;6149;52.418;13.668;2024-01-07T12:49:40;10.50;;;6.27;;
12171;SDS011;6149;52.418;13.668;2024-01-07T12:52:08;10.03;;;5.90;;
12171;SDS011;6149;52.418;13.668;2024-01-07T12:54:35;7.90;;;5.83;;
12171;SDS011;6149;52.418;13.668;2024-01-07T12:57:01;8.30;;;5.80;;
12171;SDS011;6149;52.418;13.668;2024-01-07T12:59:28;8.73;;;6.67;;
12171;SDS011;6149;52.418;13.668;2024-01-07T13:01:54;7.83;;;5.80;;
12171;SDS011;6149;52.418;13.668;2024-01-07T13:04:21;9.07;;;6.10;;
12171;SDS011;6149;52.418;13.668;2024-01-07T13:06:54;9.43;;;5.63;;
12171;SDS011;6149;52.418;13.668;2024-01-07T13:09:22;6.27;;;5.17;;
12171;SDS011;6149;52.418;13.668;2024-01-07T13:11:49;7.87;;;4.90;;
12171;SDS011;6149;52.418;13.668;2024-01-07T13:14:16;6.73;;;5.30;;
12171;SDS011;6149;52.418;13.668;2024-01-07T13:16:43;7.43;;;4.97;;
12171;SDS011;6149;52.418;13.668;2024-01-07T13:19:09;6.20;;;5.27;;
12171;SDS011;6149;52.418;13.668;2024-01-07T13:21:39;7.73;;;5.37;;
12171;SDS011;6149;52.418;13.668;2024-01-07T13:24:06;9.17;;;6.07;;
12171;SDS011;6149;52.418;13.668;2024-01-07T13:26:34;11.37;;;6.43;;
12171;SDS011;6149;52.418;13.668;2024-01-07T13:29:00;11.13;;;6.53;;
12171;SDS011;6149;52.418;13.668;2024-01-07T13:31:28;8.20;;;5.27;;
12171;SDS011;6149;52.418;13.668;2024-01-07T13:33:55;8.80;;;5.40;;
12171;SDS011;6149;52.418;13.668;2024-01-07T13:36:21;7.27;;;4.80;;
12171;SDS011;6149;52.418;13.668;2024-01-07T13:38:48;9.77;;;5.50;;
12171;SDS011;6149;52.418;13.668;2024-01-07T13:41:15;6.60;;;4.43;;
12171;SDS011;6149;52.418;13.668;2024-01-07T13:43:43;7.73;;;4.80;;
12171;SDS011;6149;52.418;13.668;2024-01-07T13:46:10;5.37;;;4.10;;
12171;SDS011;6149;52.418;13.668;2024-01-07T13:48:36;7.77;;;4.73;;
12171;SDS011;6149;52.418;13.668;2024-01-07T13:51:04;8.30;;;4.60;;
12171;SDS011;6149;52.418;13.668;2024-01-07T13:53:31;7.53;;;4.47;;
12171;SDS011;6149;52.418;13.668;2024-01-07T13:55:57;7.53;;;4.80;;
12171;SDS011;6149;52.418;13.668;2024-01-07T13:58:24;5.90;;;4.53;;
12171;SDS011;6149;52.418;13.668;2024-01-07T14:00:51;5.73;;;4.30;;
12171;SDS011;6149;52.418;13.668;2024-01-07T14:03:18;6.87;;;4.70;;
12171;SDS011;6149;52.418;13.668;2024-01-07T14:05:45;6.40;;;4.10;;
12171;SDS011;6149;52.418;13.668;2024-01-07T14:08:12;6.27;;;4.50;;
12171;SDS011;6149;52.418;13.668;2024-01-07T14:10:38;6.97;;;4.57;;
12171;SDS011;6149;52.418;13.668;2024-01-07T14:13:05;5.27;;;4.30;;
12171;SDS011;6149;52.418;13.668;2024-01-07T14:15:32;6.77;;;5.10;;
12171;SDS011;6149;52.418;13.668;2024-01-07T14:18:00;6.53;;;5.10;;
12171;SDS011;6149;52.418;13.668;2024-01-07T14:20:26;6.53;;;4.80;;
12171;SDS011;6149;52.418;13.668;2024-01-07T14:22:53;7.33;;;4.83;;
12171;SDS011;6149;52.418;13.668;2024-01-07T14:25:20;6.23;;;4.20;;
12171;SDS011;6149;52.418;13.668;2024-01-07T14:27:46;7.23;;;4.40;;
12171;SDS011;6149;52.418;13.668;2024-01-07T14:30:13;6.33;;;4.67;;
12171;SDS011;6149;52.418;13.668;2024-01-07T14:32:40;5.10;;;4.07;;
12171;SDS011;6149;52.418;13.668;2024-01-07T14:35:09;7.03;;;4.73;;
12171;SDS011;6149;52.418;13.668;2024-01-07T14:37:35;6.87;;;4.47;;
12171;SDS011;6149;52.418;13.668;2024-01-07T14:40:02;7.33;;;4.33;;
12171;SDS011;6149;52.418;13.668;2024-01-07T14:42:30;6.63;;;4.37;;
12171;SDS011;6149;52.418;13.668;2024-01-07T14:44:57;7.27;;;3.97;;
12171;SDS011;6149;52.418;13.668;2024-01-07T14:47:23;5.60;;;4.30;;
12171;SDS011;6149;52.418;13.668;2024-01-07T14:49:50;6.93;;;4.57;;
12171;SDS011;6149;52.418;13.668;2024-01-07T14:52:18;6.37;;;4.77;;